CMA CGM Turquoise — A8RB5 — position and weather

sailwx.info

Track history (hours):
 
Tides and Currents Weather Stations Pressure Air Temp Water Temp Dewpoint Dewpoint Depression Visibility Wind Speed Wind Dir Waves Ship Positions

CMA CGM Turquoise

Last reported at 2015-Mar-26 12:07 UTC. Time now 2015-Mar-27 08:13 UTC.
Position N 06°26' E 003°23'.

Length 258 m; draft 11.9 m.

Type: Ship (hazmat cat A). MMSI: 636014059.

Date/timePositionNaut miles runAvg speedWind from/ knotsBaromVisibWave heightAir tempDewpointWater temp
2015-Mar-26 12:07N 06°26' E 003°23'0 0.0
2015-Mar-26 11:31N 06°26' E 003°23'0 0.0
2015-Mar-26 10:31N 06°26' E 003°23'0 0.0
2015-Mar-26 09:30N 06°26' E 003°23'0 0.0
2015-Mar-26 08:33N 06°26' E 003°23'0 0.1
2015-Mar-26 07:32N 06°26' E 003°23'5 5.0
2015-Mar-26 06:33N 06°21' E 003°25'1515.6
2015-Mar-26 05:34N 06°06' E 003°28'1713.0
2015-Mar-26 04:13N 05°50' E 003°35'8 1.5
2015-Mar-25 22:31N 05°43' E 003°31'1 1.1
2015-Mar-25 21:33N 05°42' E 003°30'1 1.0
2015-Mar-25 20:33N 05°42' E 003°29'2 1.0
2015-Mar-25 18:12N 05°41' E 003°27'24 5.9
2015-Mar-25 14:07N 06°05' E 003°32'914.9
2015-Mar-25 13:33N 06°13' E 003°34'2 1.5
2015-Mar-25 12:32N 06°14' E 003°33'2 2.0
2015-Mar-25 11:32N 06°14' E 003°31'2 2.0
2015-Mar-25 10:33N 06°13' E 003°29'2 1.7
2015-Mar-25 09:32N 06°13' E 003°28'7 7.4
2015-Mar-25 08:32N 06°06' E 003°28'30 0.9
2015-Mar-23 21:22N 05°36' E 003°26'35 5.9
2015-Mar-23 15:33N 06°11' E 003°25'6 5.6
2015-Mar-23 14:33N 06°16' E 003°25'1212.1
2015-Mar-23 13:33N 06°04' E 003°28'  
Track history (hours):
 
Tides and Currents Weather Stations Pressure Air Temp Water Temp Dewpoint Dewpoint Depression Visibility Wind Speed Wind Dir Waves Ship Positions

CMA CGM Turquoise

Last reported at 2015-Mar-26 12:07 UTC. Time now 2015-Mar-27 08:13 UTC.
Position N 06°26' E 003°23'.

Length 258 m; draft 11.9 m.

Type: Ship (hazmat cat A). MMSI: 636014059.

Date/timePositionNaut miles runAvg speedWind from/ knotsBaromVisibWave heightAir tempDewpointWater temp
2015-Mar-26 12:07N 06°26' E 003°23'0 0.0
2015-Mar-26 11:31N 06°26' E 003°23'0 0.0
2015-Mar-26 10:31N 06°26' E 003°23'0 0.0
2015-Mar-26 09:30N 06°26' E 003°23'0 0.0
2015-Mar-26 08:33N 06°26' E 003°23'0 0.1
2015-Mar-26 07:32N 06°26' E 003°23'5 5.0
2015-Mar-26 06:33N 06°21' E 003°25'1515.6
2015-Mar-26 05:34N 06°06' E 003°28'1713.0
2015-Mar-26 04:13N 05°50' E 003°35'8 1.5
2015-Mar-25 22:31N 05°43' E 003°31'1 1.1
2015-Mar-25 21:33N 05°42' E 003°30'1 1.0
2015-Mar-25 20:33N 05°42' E 003°29'2 1.0
2015-Mar-25 18:12N 05°41' E 003°27'24 5.9
2015-Mar-25 14:07N 06°05' E 003°32'914.9
2015-Mar-25 13:33N 06°13' E 003°34'2 1.5
2015-Mar-25 12:32N 06°14' E 003°33'2 2.0
2015-Mar-25 11:32N 06°14' E 003°31'2 2.0
2015-Mar-25 10:33N 06°13' E 003°29'2 1.7
2015-Mar-25 09:32N 06°13' E 003°28'7 7.4
2015-Mar-25 08:32N 06°06' E 003°28'30 0.9
2015-Mar-23 21:22N 05°36' E 003°26'35 5.9
2015-Mar-23 15:33N 06°11' E 003°25'6 5.6
2015-Mar-23 14:33N 06°16' E 003°25'1212.1
2015-Mar-23 13:33N 06°04' E 003°28'  

Dump ship's entire track history